Time;durP1;ratioP1;P1;durP2;ratioP2;P2;SDS_P1;SDS_P2;PMS_P1;PMS_P2;Temp;Humidity;BMP_temperature;BMP_pressure;BME280_temperature;BME280_humidity;BME280_pressure;Samples;Min_cycle;Max_cycle;Signal;HPM_P1;HPM_P2
2022/01/26 00:00:30;;;;;;;161.20;48.90;;;;;;;2.67;69.20;100575.41;5204471;28;20048;-82
2022/01/26 00:06:30;;;;;;;151.80;47.33;;;;;;;2.67;69.93;100601.59;5194394;28;20053;-81
2022/01/26 00:09:26;;;;;;;165.23;50.88;;;;;;;2.73;69.28;100594.38;5188983;28;20052;-81
2022/01/26 00:12:18;;;;;;;175.48;51.67;;;;;;;2.80;69.39;100585.38;5203954;28;20128;-80
2022/01/26 00:15:09;;;;;;;181.63;52.22;;;;;;;2.73;69.60;100597.00;5184907;28;20061;-80
2022/01/26 00:17:59;;;;;;;178.65;54.10;;;;;;;2.74;69.67;100597.84;5228023;28;20120;-82
2022/01/26 00:20:57;;;;;;;177.13;51.70;;;;;;;2.76;70.12;100615.22;5182525;28;20081;-81
2022/01/26 00:24:05;;;;;;;178.32;52.75;;;;;;;2.64;69.67;100606.94;5190712;28;20123;-81
2022/01/26 00:29:57;;;;;;;176.45;53.65;;;;;;;2.47;70.44;100615.41;5204192;28;20047;-81
2022/01/26 00:34:17;;;;;;;188.30;54.25;;;;;;;2.74;70.15;100606.56;5197864;28;20085;-81
2022/01/26 00:39:16;;;;;;;177.10;51.13;;;;;;;2.70;70.28;100602.34;5203256;28;20645;-81
2022/01/26 00:42:06;;;;;;;179.88;53.95;;;;;;;2.67;70.12;100591.97;5185592;28;20096;-81
2022/01/26 00:45:03;;;;;;;175.80;51.88;;;;;;;2.81;70.35;100605.47;5199368;28;20063;-81
2022/01/26 00:47:54;;;;;;;171.95;51.65;;;;;;;2.61;70.73;100609.69;5196034;28;20511;-81
2022/01/26 00:50:50;;;;;;;182.88;53.00;;;;;;;2.47;71.77;100589.22;5202235;28;20064;-81
2022/01/26 00:53:54;;;;;;;203.13;53.35;;;;;;;1.86;74.63;100605.22;5189284;28;20164;-81
2022/01/26 00:56:44;;;;;;;186.57;52.13;;;;;;;2.14;72.23;100583.38;5204156;28;20049;-81
2022/01/26 00:59:35;;;;;;;213.32;51.80;;;;;;;1.85;73.46;100582.56;5203404;28;20056;-81
2022/01/26 01:02:27;;;;;;;206.88;51.85;;;;;;;1.17;76.76;100599.50;5202964;28;20053;-81
2022/01/26 01:05:21;;;;;;;234.27;53.78;;;;;;;1.79;75.70;100591.50;5186392;28;20507;-81
2022/01/26 01:08:16;;;;;;;211.80;49.40;;;;;;;1.79;74.54;100586.25;5194546;28;20518;-81
2022/01/26 01:11:07;;;;;;;217.18;52.38;;;;;;;1.39;76.09;100607.53;5200910;28;20057;-79
2022/01/26 01:13:58;;;;;;;210.50;51.45;;;;;;;1.78;74.72;100597.59;5201561;28;20064;-80
2022/01/26 01:16:48;;;;;;;210.85;50.42;;;;;;;2.13;72.15;100592.13;5191011;28;20049;-80
2022/01/26 01:19:45;;;;;;;196.95;49.85;;;;;;;2.28;72.26;100587.22;5199558;28;20046;-80
2022/01/26 01:34:37;;;;;;;157.88;44.03;;;;;;;1.26;75.18;100590.50;5198278;28;20546;-81
2022/01/26 01:37:27;;;;;;;172.10;44.60;;;;;;;2.07;72.29;100599.28;5183380;28;20053;-81
2022/01/26 01:40:18;;;;;;;154.70;44.55;;;;;;;2.06;72.13;100617.66;5199608;28;20053;-81
2022/01/26 01:43:09;;;;;;;147.38;43.00;;;;;;;1.55;73.37;100619.22;5197505;28;20140;-81
2022/01/26 01:46:00;;;;;;;152.30;41.97;;;;;;;0.88;76.22;100614.25;5192346;28;20440;-80
2022/01/26 01:48:51;;;;;;;152.90;43.15;;;;;;;1.35;76.30;100617.22;5205514;28;20052;-81
2022/01/26 01:51:48;;;;;;;153.13;41.55;;;;;;;1.53;73.28;100620.22;5186349;28;20048;-80
2022/01/26 01:54:40;;;;;;;149.65;41.97;;;;;;;0.67;76.71;100620.06;5183421;28;20129;-80
2022/01/26 01:57:31;;;;;;;139.13;41.15;;;;;;;1.22;74.46;100620.25;5187526;28;20417;-82
2022/01/26 02:00:25;;;;;;;147.18;39.95;;;;;;;1.03;76.80;100622.56;5173383;28;20423;-81
2022/01/26 02:03:15;;;;;;;129.85;38.08;;;;;;;1.63;72.99;100622.47;5187221;28;20108;-81
2022/01/26 02:06:06;;;;;;;126.90;37.88;;;;;;;1.50;73.56;100605.47;5193852;28;20179;-81
2022/01/26 02:08:56;;;;;;;125.03;37.47;;;;;;;1.93;72.57;100618.97;5208390;28;20052;-82
2022/01/26 02:11:52;;;;;;;126.10;38.25;;;;;;;1.82;71.62;100616.66;5198699;28;20045;-81
2022/01/26 02:14:48;;;;;;;123.30;38.03;;;;;;;1.58;72.02;100592.16;5200528;28;20067;-81
2022/01/26 03:03:36;;;;;;;125.03;35.78;;;;;;;1.99;72.08;100614.38;5179850;28;20479;-82
2022/01/26 03:06:35;;;;;;;133.32;34.17;;;;;;;1.33;73.49;100598.13;5205037;28;20527;-80
2022/01/26 03:09:31;;;;;;;123.70;35.03;;;;;;;0.91;75.43;100587.19;5191705;28;20052;-80
2022/01/26 03:12:32;;;;;;;122.30;35.83;;;;;;;1.08;74.42;100586.69;5187163;28;20064;-80
2022/01/26 03:15:31;;;;;;;135.68;35.17;;;;;;;1.49;74.36;100592.44;5187451;28;20074;-81
2022/01/26 03:18:42;;;;;;;129.88;34.78;;;;;;;1.31;73.79;100584.25;5186348;28;20145;-80
2022/01/26 03:21:43;;;;;;;146.70;34.88;;;;;;;1.17;73.39;100573.38;5180412;28;20065;-81
2022/01/26 03:34:09;;;;;;;159.10;35.53;;;;;;;1.73;73.92;100606.50;5206835;28;20295;-80
2022/01/26 03:37:06;;;;;;;161.40;36.08;;;;;;;1.73;72.50;100594.28;5206522;28;20048;-81
2022/01/26 03:39:56;;;;;;;164.73;37.38;;;;;;;1.53;74.70;100612.38;5191748;28;20045;-81
2022/01/26 03:42:46;;;;;;;163.60;36.92;;;;;;;1.50;73.47;100599.38;5191388;28;20052;-80
2022/01/26 03:45:37;;;;;;;179.50;38.08;;;;;;;1.37;74.57;100594.53;5198008;28;20563;-80
2022/01/26 03:48:27;;;;;;;166.73;37.63;;;;;;;1.65;73.86;100588.44;5192777;28;20055;-81
2022/01/26 03:51:17;;;;;;;164.60;36.65;;;;;;;2.10;72.04;100616.63;5200949;28;20049;-80
2022/01/26 03:54:08;;;;;;;170.43;37.28;;;;;;;1.93;72.02;100596.25;5196664;28;20132;-81
2022/01/26 03:56:59;;;;;;;161.73;37.72;;;;;;;1.20;74.83;100599.41;5206468;28;20048;-81
2022/01/26 03:59:49;;;;;;;186.30;40.38;;;;;;;1.36;74.67;100608.50;5204604;28;20050;-80
2022/01/26 04:02:39;;;;;;;161.43;36.78;;;;;;;1.63;72.97;100585.03;5205095;28;20068;-80
2022/01/26 04:05:30;;;;;;;159.43;37.53;;;;;;;1.56;73.38;100588.75;5204716;28;20091;-81
2022/01/26 04:08:27;;;;;;;168.25;37.40;;;;;;;1.81;72.81;100591.41;5209225;28;20046;-80
2022/01/26 04:14:15;;;;;;;159.63;36.97;;;;;;;1.64;74.10;100608.50;5202838;28;20565;-81
2022/01/26 04:17:05;;;;;;;161.02;37.95;;;;;;;1.65;74.90;100601.50;5215220;28;20055;-79
2022/01/26 04:19:58;;;;;;;163.50;36.42;;;;;;;1.77;73.08;100601.13;5179613;28;20045;-80
2022/01/26 04:22:55;;;;;;;175.18;37.65;;;;;;;1.92;72.21;100586.72;5197903;28;20052;-80
2022/01/26 04:25:47;;;;;;;164.73;36.28;;;;;;;2.28;71.24;100592.44;5171258;28;20096;-81
2022/01/26 04:28:44;;;;;;;174.75;38.63;;;;;;;2.40;70.85;100599.03;5185472;28;20046;-82
2022/01/26 04:31:34;;;;;;;164.63;38.03;;;;;;;2.07;71.52;100580.09;5186471;28;20053;-81
2022/01/26 04:34:25;;;;;;;169.88;36.72;;;;;;;2.10;71.42;100601.78;5189012;28;20050;-80
2022/01/26 04:37:32;;;;;;;167.48;36.15;;;;;;;1.90;73.24;100592.91;5184789;28;20054;-81
2022/01/26 04:40:23;;;;;;;152.50;35.70;;;;;;;2.02;71.34;100587.25;5204327;28;20110;-80
2022/01/26 04:43:19;;;;;;;155.73;36.38;;;;;;;2.03;71.49;100586.34;5204779;28;20057;-82
2022/01/26 04:46:09;;;;;;;157.88;36.50;;;;;;;2.15;71.94;100583.31;5202051;28;20519;-81
2022/01/26 04:48:59;;;;;;;165.63;36.10;;;;;;;2.07;71.92;100577.50;5203762;28;20057;-81
2022/01/26 04:51:50;;;;;;;175.00;37.25;;;;;;;2.08;72.92;100569.56;5189954;28;20095;-81
2022/01/26 04:54:40;;;;;;;168.00;36.47;;;;;;;2.28;71.63;100587.22;5195435;28;20053;-81
2022/01/26 04:57:30;;;;;;;165.43;35.08;;;;;;;2.05;71.61;100585.41;5184795;28;20196;-81
2022/01/26 05:00:20;;;;;;;154.48;35.75;;;;;;;1.92;72.36;100570.13;5218087;28;20424;-81
2022/01/26 05:03:11;;;;;;;154.15;34.85;;;;;;;1.92;72.23;100567.53;5209303;28;20107;-80
2022/01/26 05:06:02;;;;;;;167.57;36.97;;;;;;;2.17;72.51;100591.13;5207459;28;20060;-80
2022/01/26 05:08:53;;;;;;;171.77;36.30;;;;;;;2.00;71.25;100571.59;5204435;28;20064;-80
2022/01/26 05:11:45;;;;;;;168.52;37.25;;;;;;;1.97;73.05;100589.16;5202811;28;20052;-81
2022/01/26 05:14:38;;;;;;;163.48;35.22;;;;;;;1.85;72.59;100587.78;5203416;28;20415;-81
2022/01/26 05:17:28;;;;;;;166.52;37.63;;;;;;;1.85;72.36;100577.34;5203377;28;20080;-81
2022/01/26 05:20:18;;;;;;;171.70;36.25;;;;;;;1.98;72.29;100564.72;5204486;28;20065;-81
2022/01/26 05:23:09;;;;;;;174.60;37.28;;;;;;;2.18;71.57;100572.75;5204825;28;20221;-82
2022/01/26 05:25:59;;;;;;;176.35;37.10;;;;;;;2.11;71.72;100561.63;5170387;28;20199;-81
2022/01/26 05:28:50;;;;;;;156.45;37.15;;;;;;;2.27;71.09;100568.97;5170860;28;20057;-79
2022/01/26 05:31:40;;;;;;;168.18;36.80;;;;;;;2.13;72.16;100574.69;5187913;28;20116;-80
2022/01/26 05:34:30;;;;;;;191.50;41.05;;;;;;;1.59;73.31;100557.25;5188919;28;20050;-81
2022/01/26 05:37:20;;;;;;;174.68;37.95;;;;;;;1.54;74.05;100561.78;5188267;28;20578;-80
2022/01/26 05:40:12;;;;;;;186.32;37.33;;;;;;;1.81;74.41;100578.34;5209053;28;20413;-80
2022/01/26 05:43:02;;;;;;;173.55;37.22;;;;;;;2.03;73.21;100568.91;5206772;28;20060;-81
2022/01/26 05:45:56;;;;;;;160.52;35.25;;;;;;;2.10;72.01;100569.53;5210453;28;20060;-82
2022/01/26 05:48:47;;;;;;;178.57;37.45;;;;;;;2.09;72.01;100573.06;5207579;28;20064;-83
2022/01/26 05:51:37;;;;;;;167.27;34.95;;;;;;;2.09;73.11;100578.31;5207062;28;21952;-81
2022/01/26 05:54:27;;;;;;;174.40;36.55;;;;;;;2.16;72.07;100579.81;5206254;28;20064;-81
2022/01/26 05:57:17;;;;;;;156.60;35.15;;;;;;;2.30;71.57;100593.28;5193084;28;20055;-82
2022/01/26 06:00:08;;;;;;;170.45;36.10;;;;;;;2.09;73.42;100578.31;5209686;28;20057;-82
2022/01/26 06:03:04;;;;;;;179.48;36.55;;;;;;;1.99;72.14;100571.69;5213072;28;20423;-81
2022/01/26 06:05:54;;;;;;;170.15;36.53;;;;;;;2.34;71.70;100580.94;5209425;28;20049;-81
2022/01/26 06:08:44;;;;;;;147.88;34.90;;;;;;;2.21;72.32;100572.63;5201339;28;20331;-82
2022/01/26 06:11:35;;;;;;;152.60;33.63;;;;;;;1.90;73.54;100572.81;5207065;28;20141;-82
2022/01/26 06:14:25;;;;;;;149.15;31.70;;;;;;;1.96;72.66;100546.47;5207625;28;20064;-81
2022/01/26 06:17:21;;;;;;;128.98;30.30;;;;;;;2.13;71.51;100569.44;5194316;28;20050;-82
2022/01/26 06:20:11;;;;;;;136.82;31.55;;;;;;;1.82;71.71;100541.69;5200362;28;20068;-83
2022/01/26 06:23:27;;;;;;;140.07;32.60;;;;;;;1.76;74.44;100578.50;5200678;28;20245;-82
2022/01/26 06:26:18;;;;;;;143.77;31.75;;;;;;;1.94;72.48;100548.25;5224171;28;20056;-82
2022/01/26 06:29:08;;;;;;;139.55;30.48;;;;;;;2.19;72.59;100560.53;5211531;28;20108;-81
2022/01/26 06:31:59;;;;;;;140.50;31.15;;;;;;;2.21;72.00;100566.56;5210845;28;20125;-81
2022/01/26 06:34:49;;;;;;;134.90;30.02;;;;;;;1.92;72.55;100546.59;5210779;28;20060;-82
2022/01/26 06:37:39;;;;;;;144.18;30.42;;;;;;;1.92;73.15;100570.13;5216911;28;20051;-80
2022/01/26 06:40:30;;;;;;;137.52;29.20;;;;;;;2.17;71.71;100544.88;5217662;28;20052;-83
2022/01/26 06:43:23;;;;;;;131.77;31.83;;;;;;;1.93;73.41;100535.25;5202674;28;20045;-79
2022/01/26 06:46:21;;;;;;;144.77;31.92;;;;;;;2.12;72.55;100567.75;5215830;28;20091;-82
2022/01/26 06:52:13;;;;;;;141.68;30.05;;;;;;;2.08;72.04;100548.66;5215630;28;20299;-81
2022/01/26 06:55:04;;;;;;;143.50;32.85;;;;;;;1.82;73.98;100553.91;5215284;28;20562;-80
2022/01/26 06:57:55;;;;;;;150.68;33.22;;;;;;;2.08;73.20;100558.25;5187625;28;20107;-81
2022/01/26 07:00:45;;;;;;;127.90;34.33;;;;;;;2.20;71.73;100568.31;5199571;28;20053;-80
2022/01/26 07:03:36;;;;;;;123.75;32.75;;;;;;;2.23;72.00;100565.59;5223418;28;20049;-80
2022/01/26 07:06:26;;;;;;;135.10;34.03;;;;;;;1.70;74.22;100578.69;5181591;28;20133;-82
2022/01/26 07:09:16;;;;;;;132.68;35.30;;;;;;;1.57;73.85;100591.28;5212964;28;20096;-79
2022/01/26 07:12:07;;;;;;;143.07;36.25;;;;;;;1.60;74.93;100582.50;5184329;28;20522;-80
2022/01/26 07:21:26;;;;;;;150.93;36.22;;;;;;;1.12;75.29;100596.16;5213946;28;20052;-82
2022/01/26 07:24:16;;;;;;;134.10;35.58;;;;;;;1.79;73.53;100607.19;5199297;28;20048;-81
2022/01/26 07:27:06;;;;;;;130.25;37.00;;;;;;;1.70;72.27;100588.31;5212771;28;20244;-81
2022/01/26 07:29:58;;;;;;;133.75;37.55;;;;;;;1.22;73.66;100589.75;5208442;28;20056;-81
2022/01/26 07:32:49;;;;;;;120.15;36.75;;;;;;;0.96;75.03;100603.59;5215082;28;20518;-80
2022/01/26 07:35:39;;;;;;;133.13;36.88;;;;;;;1.02;76.16;100626.06;5214445;28;20053;-82
2022/01/26 07:38:31;;;;;;;125.28;35.15;;;;;;;0.61;75.59;100618.47;5216328;28;20053;-81
2022/01/26 07:41:22;;;;;;;128.30;36.80;;;;;;;1.10;73.93;100609.28;5212594;28;20049;-82
2022/01/26 07:44:12;;;;;;;127.57;35.28;;;;;;;1.13;75.36;100619.63;5217758;28;20045;-83
2022/01/26 07:47:04;;;;;;;133.68;35.58;;;;;;;1.15;74.33;100624.81;5218054;28;20046;-82
2022/01/26 07:49:56;;;;;;;129.10;36.40;;;;;;;0.59;76.26;100625.47;5217719;28;20049;-81
2022/01/26 07:52:47;;;;;;;121.38;35.38;;;;;;;0.73;75.61;100634.69;5217076;28;20041;-82
2022/01/26 07:55:37;;;;;;;121.82;35.20;;;;;;;0.43;76.12;100609.38;5207827;28;20128;-82
2022/01/26 07:58:27;;;;;;;121.40;36.00;;;;;;;0.61;76.45;100612.41;5224231;28;20084;-82
2022/01/26 08:01:18;;;;;;;113.22;34.20;;;;;;;1.08;75.35;100636.34;5216983;28;20045;-83
2022/01/26 08:04:08;;;;;;;109.57;33.95;;;;;;;1.26;72.88;100635.81;5219559;28;20099;-81
2022/01/26 08:07:01;;;;;;;119.38;35.03;;;;;;;1.50;72.25;100633.38;5217040;28;20252;-82
2022/01/26 08:09:51;;;;;;;113.30;34.60;;;;;;;1.49;71.95;100636.88;5219205;28;20056;-83
2022/01/26 08:12:42;;;;;;;120.95;36.65;;;;;;;1.67;72.51;100638.94;5223041;28;20036;-83
2022/01/26 08:15:47;;;;;;;115.22;34.85;;;;;;;1.47;71.86;100621.25;5206249;28;20072;-82
2022/01/26 08:18:38;;;;;;;120.72;35.00;;;;;;;0.65;75.84;100624.47;5203930;28;20108;-83
2022/01/26 08:21:28;;;;;;;126.25;34.97;;;;;;;0.60;76.07;100652.47;5206654;28;20113;-82
2022/01/26 08:24:19;;;;;;;122.22;34.05;;;;;;;0.77;75.20;100647.63;5194288;28;20040;-83
2022/01/26 08:27:12;;;;;;;123.80;34.30;;;;;;;1.49;74.45;100665.63;5221354;28;20081;-82
2022/01/26 08:30:08;;;;;;;131.48;33.65;;;;;;;1.30;72.97;100634.81;5216675;28;20050;-82
2022/01/26 08:32:58;;;;;;;116.50;31.55;;;;;;;1.49;72.51;100660.38;5198770;28;20045;-81
2022/01/26 08:35:49;;;;;;;103.68;29.35;;;;;;;1.29;72.07;100654.03;5212069;28;20041;-81
2022/01/26 08:38:39;;;;;;;93.47;28.20;;;;;;;0.44;75.29;100645.00;5213215;28;20053;-81
2022/01/26 08:41:29;;;;;;;94.88;29.60;;;;;;;1.32;73.15;100651.28;5214493;28;20420;-82
2022/01/26 08:44:20;;;;;;;91.25;28.98;;;;;;;1.78;71.34;100651.66;5215591;28;20039;-82
2022/01/26 08:47:10;;;;;;;89.57;27.95;;;;;;;1.09;72.81;100636.31;5214429;28;20061;-81
2022/01/26 08:50:00;;;;;;;101.85;29.75;;;;;;;1.35;72.51;100653.81;5198700;28;20048;-81
2022/01/26 08:52:51;;;;;;;95.68;29.70;;;;;;;1.81;71.20;100647.19;5201864;28;20056;-82
2022/01/26 08:55:42;;;;;;;102.78;29.15;;;;;;;1.85;72.30;100659.28;5214215;28;20140;-81
2022/01/26 08:58:32;;;;;;;102.13;28.25;;;;;;;1.59;73.15;100672.28;5214142;28;20095;-81
2022/01/26 09:01:22;;;;;;;104.03;28.63;;;;;;;1.18;73.55;100654.31;5185166;28;20056;-82
2022/01/26 09:04:13;;;;;;;102.63;29.00;;;;;;;1.30;74.56;100667.94;5214809;28;20139;-82
2022/01/26 09:07:04;;;;;;;105.65;31.30;;;;;;;1.03;74.18;100665.19;5212449;28;20060;-82
2022/01/26 09:09:58;;;;;;;103.82;30.92;;;;;;;1.53;73.78;100675.97;5196863;28;20044;-81
2022/01/26 09:12:51;;;;;;;106.55;31.05;;;;;;;1.59;72.11;100677.50;5212470;28;20073;-81
2022/01/26 09:15:42;;;;;;;102.38;30.38;;;;;;;0.95;74.81;100685.44;5210949;28;20049;-81
2022/01/26 09:18:59;;;;;;;93.78;28.20;;;;;;;0.00;77.74;100672.22;5200201;28;20053;-82
2022/01/26 09:21:45;;;;;;;91.47;29.67;;;;;;;0.25;76.83;100643.75;5215887;28;20120;-81
2022/01/26 09:24:37;;;;;;;103.72;31.42;;;;;;;1.28;72.84;100660.13;5200817;28;20065;-81
2022/01/26 09:27:27;;;;;;;96.63;31.48;;;;;;;0.92;74.75;100688.13;5211902;28;20051;-81
2022/01/26 09:30:17;;;;;;;99.07;29.95;;;;;;;1.40;73.21;100669.38;5218027;28;20049;-81
2022/01/26 09:33:07;;;;;;;108.05;32.67;;;;;;;1.62;72.05;100677.41;5223837;28;20101;-81
2022/01/26 09:35:57;;;;;;;109.88;32.42;;;;;;;2.04;72.36;100674.41;5216467;28;20075;-81
2022/01/26 09:38:47;;;;;;;97.85;29.38;;;;;;;1.60;71.67;100626.97;5222203;28;20156;-82
2022/01/26 09:41:38;;;;;;;93.57;29.27;;;;;;;2.08;71.23;100655.06;5199383;28;20033;-82
2022/01/26 09:44:32;;;;;;;81.93;27.20;;;;;;;1.88;71.72;100648.72;5206853;28;20439;-84
2022/01/26 09:47:25;;;;;;;98.60;28.05;;;;;;;1.94;72.10;100660.75;5203012;28;20056;-80
2022/01/26 09:50:16;;;;;;;98.85;27.05;;;;;;;1.32;73.39;100635.59;5189836;28;20045;-81
2022/01/26 09:53:06;;;;;;;86.53;26.23;;;;;;;1.83;72.59;100665.47;5208380;28;20064;-81
2022/01/26 09:55:58;;;;;;;89.45;27.20;;;;;;;1.80;71.62;100640.25;5206958;28;20244;-83
2022/01/26 09:58:50;;;;;;;97.32;28.15;;;;;;;1.95;72.23;100610.13;5200981;28;20503;-82
2022/01/26 10:01:51;;;;;;;109.50;30.77;;;;;;;2.09;71.63;100618.41;5186773;28;20083;-81
2022/01/26 10:04:41;;;;;;;97.50;29.42;;;;;;;1.73;73.42;100611.75;5183755;28;20044;-80
2022/01/26 10:17:20;;;;;;;78.15;26.75;;;;;;;1.56;72.71;100631.41;5215030;28;20052;-82
2022/01/26 10:20:03;;;;;;;73.00;24.55;;;;;;;1.78;71.47;100636.81;5203333;28;20047;-83
2022/01/26 10:22:53;;;;;;;82.03;27.05;;;;;;;1.75;71.73;100644.75;5221896;28;20496;-83
2022/01/26 10:26:14;;;;;;;86.03;28.13;;;;;;;1.67;72.40;100623.25;5205709;28;20236;-83
2022/01/26 10:29:05;;;;;;;76.22;27.35;;;;;;;1.78;71.83;100605.44;5201016;28;20537;-82
2022/01/26 10:31:56;;;;;;;85.10;28.88;;;;;;;2.18;70.51;100621.59;5201083;28;20219;-80
2022/01/26 10:34:57;;;;;;;85.38;28.15;;;;;;;1.59;72.50;100626.09;5191500;28;20500;-80
2022/01/26 10:37:53;;;;;;;84.60;27.90;;;;;;;1.12;73.71;100651.00;5192144;28;20553;-84
2022/01/26 10:40:43;;;;;;;88.75;29.17;;;;;;;0.50;76.69;100648.34;5205545;28;21302;-81
2022/01/26 10:43:34;;;;;;;81.03;28.42;;;;;;;0.28;76.39;100656.72;5205605;28;20048;-81
2022/01/26 10:46:39;;;;;;;92.63;29.55;;;;;;;-0.04;78.08;100660.09;5191999;28;20128;-80
2022/01/26 10:52:38;;;;;;;88.38;26.98;;;;;;;0.45;75.88;100658.91;5199850;28;20563;-80
2022/01/26 10:55:30;;;;;;;86.32;28.88;;;;;;;1.37;74.35;100691.22;5205368;28;20409;-82
2022/01/26 10:58:30;;;;;;;90.43;27.45;;;;;;;1.28;73.32;100665.34;5211050;28;20598;-82
2022/01/26 11:01:22;;;;;;;91.22;28.40;;;;;;;0.10;74.60;100577.19;5199405;28;20211;-83
2022/01/26 11:04:14;;;;;;;80.53;27.27;;;;;;;1.05;74.11;100692.13;5199385;28;20061;-83
2022/01/26 11:07:06;;;;;;;90.82;28.52;;;;;;;0.22;76.32;100696.00;5206957;28;20071;-81
2022/01/26 11:10:04;;;;;;;83.68;27.60;;;;;;;0.86;74.93;100693.50;5206110;28;20526;-82
2022/01/26 11:12:55;;;;;;;82.45;29.00;;;;;;;0.92;73.39;100686.38;5205277;28;20444;-82
2022/01/26 11:15:45;;;;;;;83.85;27.17;;;;;;;0.74;73.88;100686.03;5193109;28;20515;-82
2022/01/26 11:18:58;;;;;;;78.07;25.90;;;;;;;0.82;73.39;100663.16;5205115;28;20111;-82
2022/01/26 11:21:49;;;;;;;68.60;25.65;;;;;;;0.26;76.05;100639.41;5188480;28;20053;-82
2022/01/26 11:25:26;;;;;;;77.95;25.75;;;;;;;0.47;75.25;100676.25;5204548;28;20577;-80
2022/01/26 11:28:20;;;;;;;68.13;24.55;;;;;;;0.58;74.68;100651.63;5205687;28;20130;-83
2022/01/26 11:31:15;;;;;;;74.55;24.60;;;;;;;0.60;75.25;100670.72;5208511;28;20522;-82
2022/01/26 11:34:20;;;;;;;74.60;24.45;;;;;;;0.49;74.67;100633.59;5209603;28;20518;-81
2022/01/26 11:37:18;;;;;;;64.15;22.73;;;;;;;-0.35;77.56;100668.63;5192555;28;20526;-82
2022/01/26 11:46:27;;;;;;;71.65;24.98;;;;;;;0.22;76.41;100664.69;5179743;28;20504;-68
2022/01/26 11:49:24;;;;;;;77.18;25.88;;;;;;;0.45;75.19;100638.03;5160946;28;20042;-69
2022/01/26 11:52:22;;;;;;;83.85;26.17;;;;;;;0.83;74.24;100659.66;5166877;28;20101;-68
2022/01/26 11:55:40;;;;;;;84.63;27.30;;;;;;;0.84;74.42;100670.06;5162343;28;20500;-68
2022/01/26 11:58:38;;;;;;;81.03;27.02;;;;;;;1.26;72.70;100664.56;5166454;28;20412;-67
2022/01/26 12:01:39;;;;;;;83.72;25.08;;;;;;;0.21;76.42;100663.00;5172656;28;20188;-67
2022/01/26 12:04:33;;;;;;;78.13;25.58;;;;;;;0.58;74.70;100646.41;5179366;28;20177;-69
2022/01/26 12:07:24;;;;;;;;;;;;;;;0.67;74.48;100640.94;5176741;28;20136;-68
2022/01/26 12:10:29;;;;;;;81.47;25.00;;;;;;;0.77;74.70;100652.84;5166020;28;20018;-67
2022/01/26 12:13:25;;;;;;;81.10;25.95;;;;;;;0.98;74.09;100668.84;5162160;28;20420;-67
2022/01/26 12:16:18;;;;;;;80.90;25.10;;;;;;;1.15;74.05;100649.16;5163428;28;20428;-67
2022/01/26 12:35:12;;;;;;;90.13;27.30;;;;;;;0.54;77.06;100647.41;5168822;28;20046;-69
2022/01/26 12:44:10;;;;;;;98.18;29.00;;;;;;;1.62;72.64;100652.16;5173324;28;20061;-69
2022/01/26 12:47:00;;;;;;;106.15;29.63;;;;;;;1.49;74.03;100652.56;5168078;28;20061;-70
2022/01/26 12:49:51;;;;;;;100.53;29.63;;;;;;;1.12;74.29;100662.31;5164390;28;20467;-70
2022/01/26 12:52:46;;;;;;;88.97;27.83;;;;;;;0.84;75.19;100640.50;5165809;28;20053;-70
2022/01/26 12:55:37;;;;;;;101.65;28.10;;;;;;;1.12;75.88;100651.00;5166620;28;20143;-69
2022/01/26 12:58:34;;;;;;;100.13;29.52;;;;;;;1.63;73.05;100647.78;5163176;28;20330;-69
2022/01/26 13:01:25;;;;;;;97.35;29.38;;;;;;;1.36;74.12;100649.47;5162280;28;20065;-70
2022/01/26 13:04:18;;;;;;;95.65;28.30;;;;;;;1.67;73.68;100648.53;5152701;28;20042;-67
2022/01/26 13:07:15;;;;;;;98.63;28.15;;;;;;;0.54;76.50;100642.16;5172105;28;20575;-68
2022/01/26 13:10:16;;;;;;;87.80;28.00;;;;;;;1.21;74.29;100642.06;5178617;28;20049;-67
2022/01/26 13:13:12;;;;;;;78.63;25.77;;;;;;;0.88;74.86;100642.13;5167362;28;20545;-68
2022/01/26 13:16:24;;;;;;;78.80;25.65;;;;;;;1.61;72.89;100645.19;5181215;28;20049;-68
2022/01/26 13:26:33;;;;;;;71.57;22.38;;;;;;;0.80;74.36;100655.38;5178163;28;20046;-68
2022/01/26 13:29:09;;;;;;;64.72;21.83;;;;;;;0.83;74.45;100670.97;5153234;28;20565;-68
2022/01/26 13:38:17;;;;;;;61.35;21.08;;;;;;;0.75;74.87;100653.78;5174709;28;20050;-68
2022/01/26 13:47:27;;;;;;;55.35;21.42;;;;;;;1.50;71.44;100628.13;5170108;28;20049;-68
2022/01/26 13:53:12;;;;;;;56.58;21.48;;;;;;;1.82;71.25;100638.47;5172392;28;20527;-69
2022/01/26 13:56:18;;;;;;;70.40;21.63;;;;;;;1.71;71.29;100634.47;5165054;28;20310;-68
2022/01/26 13:59:28;;;;;;;64.10;21.67;;;;;;;0.89;74.36;100646.44;5182766;28;20135;-67
2022/01/26 14:02:19;;;;;;;57.88;21.15;;;;;;;0.96;73.86;100654.94;5180624;28;20046;-67
2022/01/26 14:05:10;;;;;;;58.53;21.27;;;;;;;0.86;74.98;100665.66;5181030;28;20070;-67
2022/01/26 14:08:01;;;;;;;60.72;24.08;;;;;;;1.13;73.50;100668.41;5183034;28;20407;-68
2022/01/26 14:10:51;;;;;;;56.08;21.02;;;;;;;0.71;75.87;100668.69;5165823;28;20173;-68
2022/01/26 14:13:45;;;;;;;62.50;22.07;;;;;;;1.26;74.01;100656.72;5170866;28;20046;-68
2022/01/26 14:16:44;;;;;;;55.88;20.38;;;;;;;0.44;76.50;100672.88;5184742;28;20038;-66
2022/01/26 14:19:54;;;;;;;52.35;20.42;;;;;;;0.21;76.53;100668.22;5171077;28;20038;-67
2022/01/26 14:23:16;;;;;;;50.33;19.50;;;;;;;0.06;77.60;100672.03;5169511;28;20546;-68
2022/01/26 14:25:58;;;;;;;50.33;19.63;;;;;;;0.50;76.71;100692.72;5181108;28;20049;-66
2022/01/26 14:28:49;;;;;;;56.63;20.85;;;;;;;-0.09;77.77;100669.81;5166135;28;20069;-69
2022/01/26 15:09:17;;;;;;;50.10;19.27;;;;;;;0.67;74.67;100673.13;5163997;28;20141;-69
2022/01/26 15:19:01;;;;;;;52.88;19.10;;;;;;;1.38;72.69;100660.72;5168172;28;20100;-69
2022/01/26 15:35:00;;;;;;;55.47;19.70;;;;;;;1.86;71.56;100637.47;5184131;28;20045;-72
2022/01/26 15:41:56;;;;;;;48.17;18.90;;;;;;;0.79;74.46;100616.25;5178097;28;20412;-69
2022/01/26 15:44:37;;;;;;;55.13;20.33;;;;;;;1.64;71.13;100618.09;5197597;28;20152;-67
2022/01/26 15:50:49;;;;;;;56.78;19.67;;;;;;;1.69;72.05;100623.19;5177275;28;20684;-68
2022/01/26 16:26:17;;;;;;;54.50;20.45;;;;;;;1.80;71.49;100634.19;5177076;28;20140;-66
2022/01/26 16:37:49;;;;;;;58.90;21.30;;;;;;;0.34;74.61;100659.19;5172448;28;20049;-67
2022/01/26 17:25:17;;;;;;;50.58;20.73;;;;;;;1.08;71.17;100660.69;5172611;28;20088;-68
2022/01/26 17:46:42;;;;;;;58.15;21.10;;;;;;;1.01;72.65;100668.75;5179406;28;20120;-68
2022/01/26 18:06:33;;;;;;;56.22;21.52;;;;;;;1.12;71.80;100645.78;5184939;28;20042;-68
2022/01/26 18:40:08;;;;;;;54.72;20.20;;;;;;;0.95;71.88;100669.78;5179879;28;20076;-67
2022/01/26 18:52:04;;;;;;;60.05;20.85;;;;;;;1.01;70.97;100648.72;5182430;28;20060;-68
2022/01/26 18:54:54;;;;;;;55.17;20.27;;;;;;;0.88;72.29;100647.34;5171003;28;20072;-68
2022/01/26 18:57:44;;;;;;;59.10;21.02;;;;;;;1.36;69.85;100652.94;5176221;28;20151;-68
2022/01/26 19:00:34;;;;;;;52.42;20.23;;;;;;;1.25;69.90;100648.91;5181407;28;20053;-69
2022/01/26 19:03:24;;;;;;;49.85;20.38;;;;;;;0.93;71.01;100653.31;5176447;28;20132;-69
2022/01/26 19:06:15;;;;;;;60.05;21.27;;;;;;;1.00;71.61;100648.75;5175489;28;20100;-68
2022/01/26 19:09:05;;;;;;;58.13;20.67;;;;;;;1.12;70.41;100648.41;5172036;28;20054;-68
2022/01/26 19:11:58;;;;;;;51.42;20.08;;;;;;;0.79;71.40;100651.03;5169584;28;20050;-69
2022/01/26 19:14:54;;;;;;;55.28;20.27;;;;;;;1.11;71.55;100644.94;5179479;28;20107;-69
2022/01/26 19:20:54;;;;;;;58.03;21.58;;;;;;;1.09;69.92;100640.66;5165439;28;20061;-69
2022/01/26 19:26:55;;;;;;;61.67;21.42;;;;;;;0.87;72.32;100656.94;5166594;28;20057;-68
2022/01/26 19:30:02;;;;;;;64.45;22.60;;;;;;;1.16;70.58;100658.75;5178624;28;20044;-68
2022/01/26 19:33:21;;;;;;;71.00;22.85;;;;;;;1.48;70.21;100654.31;5175729;28;20115;-68
2022/01/26 19:43:32;;;;;;;66.00;22.25;;;;;;;1.47;69.53;100636.06;5169637;28;20678;-68